SECU/CUE METAR and TAF weather

Enter ICAO airport designator
Station Type Date Time Source
SECU METAR 2019/08/22 09:00 UTC NOAA

SECU 220900Z AUTO VRB02KT ////NDV NCD 11/10 Q1028


Station Type Date Time Source
SECU Decoded METAR 2019/08/22 09:00 UTC NOAA

Station name not available
Aug 22, 2019 - 05:00 AM EDT / 2019.08.22 0900 UTC
Wind: Variable at 2 MPH (2 KT):0
Temperature: 51 F (11 C)
Dew Point: 50 F (10 C)
Relative Humidity: 93%
Pressure (altimeter): 30.36 in. Hg (1028 hPa)
ob: SECU 220900Z AUTO VRB02KT ////NDV NCD 11/10 Q1028
cycle: 9

Station Type Date Time Source
SECU TAF 2019/04/02 18:03 UTC NOAA

TAF SECU 021640Z 0218/0318 16008KT 9999 SCT033 SCT100
TEMPO 0221/0224 SHRA BKN030TCU BKN100
FM030000 05004KT 9999 RA BKN033 OVC100
FM030500 VRB03KT 9999 FEW008 BKN030 BKN100
FM031500 16005KT 9999 SCT030 SCT100 TX21/0219Z TN12/0310Z

Example: see airport list